sensor_id;sensor_type;location;lat;lon;timestamp;pressure;altitude;pressure_sealevel;temperature;humidity
74790;BME280;63318;52.406;13.416;2023-03-14T00:00:19;98883.64;;;11.76;74.83
74790;BME280;63318;52.406;13.416;2023-03-14T00:02:53;98891.60;;;11.71;74.87
74790;BME280;63318;52.406;13.416;2023-03-14T00:05:21;98892.70;;;11.68;75.01
74790;BME280;63318;52.406;13.416;2023-03-14T00:07:50;98891.85;;;11.64;75.01
74790;BME280;63318;52.406;13.416;2023-03-14T00:10:18;98890.45;;;11.61;75.07
74790;BME280;63318;52.406;13.416;2023-03-14T00:12:47;98887.67;;;11.57;75.18
74790;BME280;63318;52.406;13.416;2023-03-14T00:15:15;98885.56;;;11.55;75.24
74790;BME280;63318;52.406;13.416;2023-03-14T00:17:45;98878.39;;;11.53;75.30
74790;BME280;63318;52.406;13.416;2023-03-14T00:20:14;98867.58;;;11.51;75.40
74790;BME280;63318;52.406;13.416;2023-03-14T00:22:42;98855.34;;;11.49;75.46
74790;BME280;63318;52.406;13.416;2023-03-14T00:25:12;98840.98;;;11.48;75.57
74790;BME280;63318;52.406;13.416;2023-03-14T00:27:41;98836.16;;;11.45;75.60
74790;BME280;63318;52.406;13.416;2023-03-14T00:30:11;98832.86;;;11.43;75.76
74790;BME280;63318;52.406;13.416;2023-03-14T00:32:39;98833.05;;;11.40;75.84
74790;BME280;63318;52.406;13.416;2023-03-14T00:35:08;98834.53;;;11.37;75.92
74790;BME280;63318;52.406;13.416;2023-03-14T00:37:37;98829.58;;;11.36;76.09
74790;BME280;63318;52.406;13.416;2023-03-14T00:40:07;98820.55;;;11.33;76.19
74790;BME280;63318;52.406;13.416;2023-03-14T00:42:36;98818.92;;;11.30;76.17
74790;BME280;63318;52.406;13.416;2023-03-14T00:45:05;98818.55;;;11.28;76.31
74790;BME280;63318;52.406;13.416;2023-03-14T00:47:33;98825.06;;;11.26;76.39
74790;BME280;63318;52.406;13.416;2023-03-14T00:50:01;98829.38;;;11.25;76.52
74790;BME280;63318;52.406;13.416;2023-03-14T00:52:30;98825.75;;;11.23;76.55
74790;BME280;63318;52.406;13.416;2023-03-14T00:54:58;98818.12;;;11.22;76.54
74790;BME280;63318;52.406;13.416;2023-03-14T00:57:26;98814.05;;;11.19;76.76
74790;BME280;63318;52.406;13.416;2023-03-14T00:59:54;98808.45;;;11.16;76.80
74790;BME280;63318;52.406;13.416;2023-03-14T01:02:22;98800.66;;;11.15;76.99
74790;BME280;63318;52.406;13.416;2023-03-14T01:04:51;98796.96;;;11.12;76.97
74790;BME280;63318;52.406;13.416;2023-03-14T01:07:19;98788.30;;;11.08;77.06
74790;BME280;63318;52.406;13.416;2023-03-14T01:09:49;98783.94;;;11.06;77.06
74790;BME280;63318;52.406;13.416;2023-03-14T01:12:18;98783.31;;;11.02;77.14
74790;BME280;63318;52.406;13.416;2023-03-14T01:14:47;98788.39;;;11.00;77.23
74790;BME280;63318;52.406;13.416;2023-03-14T01:17:15;98793.61;;;10.98;77.34
74790;BME280;63318;52.406;13.416;2023-03-14T01:19:44;98801.42;;;10.98;77.41
74790;BME280;63318;52.406;13.416;2023-03-14T01:22:12;98810.05;;;10.97;77.55
74790;BME280;63318;52.406;13.416;2023-03-14T01:24:41;98832.25;;;10.96;77.62
74790;BME280;63318;52.406;13.416;2023-03-14T01:27:10;98852.41;;;10.96;77.68
74790;BME280;63318;52.406;13.416;2023-03-14T01:29:38;98850.42;;;10.96;77.80
74790;BME280;63318;52.406;13.416;2023-03-14T01:32:06;98842.39;;;10.96;77.69
74790;BME280;63318;52.406;13.416;2023-03-14T01:34:35;98850.25;;;10.96;77.99
74790;BME280;63318;52.406;13.416;2023-03-14T01:37:03;98856.23;;;10.97;77.92
74790;BME280;63318;52.406;13.416;2023-03-14T01:39:31;98849.33;;;10.97;77.97
74790;BME280;63318;52.406;13.416;2023-03-14T01:42:01;98841.27;;;10.97;78.10
74790;BME280;63318;52.406;13.416;2023-03-14T01:47:11;98854.84;;;10.99;78.15
74790;BME280;63318;52.406;13.416;2023-03-14T01:49:39;98856.73;;;10.99;78.21
74790;BME280;63318;52.406;13.416;2023-03-14T01:52:09;98861.38;;;10.98;78.12
74790;BME280;63318;52.406;13.416;2023-03-14T01:54:41;98863.55;;;10.97;78.10
74790;BME280;63318;52.406;13.416;2023-03-14T01:57:13;98865.55;;;10.96;78.28
74790;BME280;63318;52.406;13.416;2023-03-14T01:59:48;98864.07;;;10.95;78.23
74790;BME280;63318;52.406;13.416;2023-03-14T02:02:18;98861.55;;;10.93;78.30
74790;BME280;63318;52.406;13.416;2023-03-14T02:04:47;98851.48;;;10.92;78.39
74790;BME280;63318;52.406;13.416;2023-03-14T02:07:17;98841.29;;;10.91;78.39
74790;BME280;63318;52.406;13.416;2023-03-14T02:09:47;98826.40;;;10.89;78.37
74790;BME280;63318;52.406;13.416;2023-03-14T02:12:18;98832.84;;;10.88;78.34
74790;BME280;63318;52.406;13.416;2023-03-14T02:14:48;98824.24;;;10.85;78.60
74790;BME280;63318;52.406;13.416;2023-03-14T02:17:17;98820.73;;;10.83;78.55
74790;BME280;63318;52.406;13.416;2023-03-14T02:19:55;98814.16;;;10.81;78.50
74790;BME280;63318;52.406;13.416;2023-03-14T02:22:26;98816.27;;;10.78;78.56
74790;BME280;63318;52.406;13.416;2023-03-14T02:25:02;98820.65;;;10.75;78.69
74790;BME280;63318;52.406;13.416;2023-03-14T02:27:33;98821.56;;;10.73;78.69
74790;BME280;63318;52.406;13.416;2023-03-14T02:30:04;98820.31;;;10.71;78.64
74790;BME280;63318;52.406;13.416;2023-03-14T02:32:34;98822.60;;;10.71;78.79
74790;BME280;63318;52.406;13.416;2023-03-14T02:35:10;98820.77;;;10.71;78.81
74790;BME280;63318;52.406;13.416;2023-03-14T02:37:41;98818.25;;;10.72;78.68
74790;BME280;63318;52.406;13.416;2023-03-14T02:40:11;98815.24;;;10.72;78.90
74790;BME280;63318;52.406;13.416;2023-03-14T02:42:39;98806.27;;;10.73;78.93
74790;BME280;63318;52.406;13.416;2023-03-14T02:45:36;98813.63;;;10.74;78.86
74790;BME280;63318;52.406;13.416;2023-03-14T02:48:09;98800.04;;;10.76;78.95
74790;BME280;63318;52.406;13.416;2023-03-14T02:50:39;98797.45;;;10.76;78.76
74790;BME280;63318;52.406;13.416;2023-03-14T02:53:08;98794.48;;;10.76;78.86
74790;BME280;63318;52.406;13.416;2023-03-14T02:55:37;98786.61;;;10.75;78.90
74790;BME280;63318;52.406;13.416;2023-03-14T02:58:06;98774.69;;;10.75;78.73
74790;BME280;63318;52.406;13.416;2023-03-14T03:00:34;98767.30;;;10.74;78.86
74790;BME280;63318;52.406;13.416;2023-03-14T03:03:03;98763.59;;;10.74;78.81
74790;BME280;63318;52.406;13.416;2023-03-14T03:05:31;98760.04;;;10.72;78.69
74790;BME280;63318;52.406;13.416;2023-03-14T03:08:00;98750.96;;;10.71;78.92
74790;BME280;63318;52.406;13.416;2023-03-14T03:10:29;98745.73;;;10.70;78.82
74790;BME280;63318;52.406;13.416;2023-03-14T03:12:59;98733.40;;;10.68;78.82
74790;BME280;63318;52.406;13.416;2023-03-14T03:15:28;98725.07;;;10.66;79.03
74790;BME280;63318;52.406;13.416;2023-03-14T03:17:56;98717.23;;;10.65;78.90
74790;BME280;63318;52.406;13.416;2023-03-14T03:20:25;98710.20;;;10.62;78.84
74790;BME280;63318;52.406;13.416;2023-03-14T03:22:53;98706.45;;;10.60;78.71
74790;BME280;63318;52.406;13.416;2023-03-14T03:25:22;98709.27;;;10.58;78.91
74790;BME280;63318;52.406;13.416;2023-03-14T03:27:50;98714.93;;;10.57;78.96
74790;BME280;63318;52.406;13.416;2023-03-14T03:30:18;98733.27;;;10.54;79.03
74790;BME280;63318;52.406;13.416;2023-03-14T03:32:47;98741.92;;;10.52;79.02
74790;BME280;63318;52.406;13.416;2023-03-14T03:35:16;98740.15;;;10.50;78.99
74790;BME280;63318;52.406;13.416;2023-03-14T03:37:44;98739.52;;;10.48;79.04
74790;BME280;63318;52.406;13.416;2023-03-14T03:40:13;98741.26;;;10.48;79.18
74790;BME280;63318;52.406;13.416;2023-03-14T03:42:41;98743.42;;;10.47;79.12
74790;BME280;63318;52.406;13.416;2023-03-14T03:45:11;98747.88;;;10.46;79.21
74790;BME280;63318;52.406;13.416;2023-03-14T03:47:39;98747.09;;;10.44;79.13
74790;BME280;63318;52.406;13.416;2023-03-14T03:50:09;98740.63;;;10.43;79.28
74790;BME280;63318;52.406;13.416;2023-03-14T03:52:38;98735.14;;;10.41;79.27
74790;BME280;63318;52.406;13.416;2023-03-14T03:55:08;98735.08;;;10.40;79.13
74790;BME280;63318;52.406;13.416;2023-03-14T03:57:37;98738.66;;;10.39;79.20
74790;BME280;63318;52.406;13.416;2023-03-14T04:00:09;98735.84;;;10.38;79.28
74790;BME280;63318;52.406;13.416;2023-03-14T04:02:38;98732.02;;;10.39;79.33
74790;BME280;63318;52.406;13.416;2023-03-14T04:05:07;98735.42;;;10.41;79.22
74790;BME280;63318;52.406;13.416;2023-03-14T04:07:35;98744.34;;;10.41;79.20
74790;BME280;63318;52.406;13.416;2023-03-14T04:10:04;98732.30;;;10.41;78.96
74790;BME280;63318;52.406;13.416;2023-03-14T04:12:33;98727.10;;;10.41;79.21
74790;BME280;63318;52.406;13.416;2023-03-14T04:15:01;98734.70;;;10.39;79.14
74790;BME280;63318;52.406;13.416;2023-03-14T04:17:29;98737.15;;;10.37;79.22
74790;BME280;63318;52.406;13.416;2023-03-14T04:19:58;98734.20;;;10.35;79.19
74790;BME280;63318;52.406;13.416;2023-03-14T04:22:26;98723.22;;;10.33;79.22
74790;BME280;63318;52.406;13.416;2023-03-14T04:24:54;98718.75;;;10.30;79.13
74790;BME280;63318;52.406;13.416;2023-03-14T04:27:23;98713.77;;;10.29;79.17
74790;BME280;63318;52.406;13.416;2023-03-14T04:29:51;98715.86;;;10.28;79.20
74790;BME280;63318;52.406;13.416;2023-03-14T04:32:20;98712.56;;;10.27;79.26
74790;BME280;63318;52.406;13.416;2023-03-14T04:34:48;98706.11;;;10.26;79.09
74790;BME280;63318;52.406;13.416;2023-03-14T04:37:16;98705.05;;;10.26;79.04
74790;BME280;63318;52.406;13.416;2023-03-14T04:39:45;98700.41;;;10.25;79.07
74790;BME280;63318;52.406;13.416;2023-03-14T04:42:16;98695.23;;;10.24;79.17
74790;BME280;63318;52.406;13.416;2023-03-14T04:44:44;98695.09;;;10.25;79.05
74790;BME280;63318;52.406;13.416;2023-03-14T04:47:13;98688.60;;;10.25;79.15
74790;BME280;63318;52.406;13.416;2023-03-14T04:49:41;98680.41;;;10.25;78.88
74790;BME280;63318;52.406;13.416;2023-03-14T04:52:09;98677.27;;;10.24;78.96
74790;BME280;63318;52.406;13.416;2023-03-14T04:54:37;98671.02;;;10.23;78.84
74790;BME280;63318;52.406;13.416;2023-03-14T04:57:07;98667.14;;;10.23;78.75
74790;BME280;63318;52.406;13.416;2023-03-14T04:59:35;98659.89;;;10.22;78.75
74790;BME280;63318;52.406;13.416;2023-03-14T05:02:04;98658.65;;;10.21;78.69
74790;BME280;63318;52.406;13.416;2023-03-14T05:04:32;98670.73;;;10.20;78.84
74790;BME280;63318;52.406;13.416;2023-03-14T05:07:00;98681.95;;;10.19;78.61
74790;BME280;63318;52.406;13.416;2023-03-14T05:09:29;98684.98;;;10.18;78.66
74790;BME280;63318;52.406;13.416;2023-03-14T05:11:57;98686.30;;;10.17;78.80
74790;BME280;63318;52.406;13.416;2023-03-14T05:14:25;98686.55;;;10.16;78.68
74790;BME280;63318;52.406;13.416;2023-03-14T05:16:54;98678.48;;;10.15;78.55
74790;BME280;63318;52.406;13.416;2023-03-14T05:19:22;98669.63;;;10.15;78.67
74790;BME280;63318;52.406;13.416;2023-03-14T05:21:50;98657.46;;;10.16;78.36
74790;BME280;63318;52.406;13.416;2023-03-14T05:24:20;98650.28;;;10.15;78.36
74790;BME280;63318;52.406;13.416;2023-03-14T05:26:48;98653.98;;;10.15;78.25
74790;BME280;63318;52.406;13.416;2023-03-14T05:29:17;98658.17;;;10.14;78.44
74790;BME280;63318;52.406;13.416;2023-03-14T05:31:45;98650.61;;;10.13;78.23
74790;BME280;63318;52.406;13.416;2023-03-14T05:34:14;98649.33;;;10.12;78.31
74790;BME280;63318;52.406;13.416;2023-03-14T05:36:42;98649.89;;;10.12;78.18
74790;BME280;63318;52.406;13.416;2023-03-14T05:39:10;98655.70;;;10.11;77.98
74790;BME280;63318;52.406;13.416;2023-03-14T05:41:38;98649.42;;;10.12;77.90
74790;BME280;63318;52.406;13.416;2023-03-14T05:44:07;98651.52;;;10.13;78.04
74790;BME280;63318;52.406;13.416;2023-03-14T05:46:35;98659.42;;;10.14;77.89
74790;BME280;63318;52.406;13.416;2023-03-14T05:49:03;98660.17;;;10.15;77.91
74790;BME280;63318;52.406;13.416;2023-03-14T05:51:31;98659.81;;;10.16;77.85
74790;BME280;63318;52.406;13.416;2023-03-14T05:54:00;98667.45;;;10.16;77.65
74790;BME280;63318;52.406;13.416;2023-03-14T05:56:28;98662.27;;;10.17;77.62
74790;BME280;63318;52.406;13.416;2023-03-14T05:58:56;98656.00;;;10.18;77.45
74790;BME280;63318;52.406;13.416;2023-03-14T06:01:25;98651.13;;;10.20;77.36
74790;BME280;63318;52.406;13.416;2023-03-14T06:03:56;98653.49;;;10.21;77.32
74790;BME280;63318;52.406;13.416;2023-03-14T06:06:24;98649.15;;;10.21;77.32
74790;BME280;63318;52.406;13.416;2023-03-14T06:08:53;98649.78;;;10.24;76.97
74790;BME280;63318;52.406;13.416;2023-03-14T06:11:21;98659.41;;;10.29;76.77
74790;BME280;63318;52.406;13.416;2023-03-14T06:13:50;98651.30;;;10.33;76.53
74790;BME280;63318;52.406;13.416;2023-03-14T06:16:20;98650.85;;;10.36;76.20
74790;BME280;63318;52.406;13.416;2023-03-14T06:18:48;98650.63;;;10.40;76.10
74790;BME280;63318;52.406;13.416;2023-03-14T06:21:16;98657.52;;;10.43;76.05
74790;BME280;63318;52.406;13.416;2023-03-14T06:23:44;98652.83;;;10.45;75.89
74790;BME280;63318;52.406;13.416;2023-03-14T06:26:13;98657.98;;;10.48;75.00
74790;BME280;63318;52.406;13.416;2023-03-14T06:28:41;98658.32;;;10.54;75.40
74790;BME280;63318;52.406;13.416;2023-03-14T06:31:10;98647.89;;;10.56;75.22
74790;BME280;63318;52.406;13.416;2023-03-14T06:33:38;98658.41;;;10.59;75.35
74790;BME280;63318;52.406;13.416;2023-03-14T06:36:08;98664.77;;;10.61;75.22
74790;BME280;63318;52.406;13.416;2023-03-14T06:38:36;98664.96;;;10.63;74.95
74790;BME280;63318;52.406;13.416;2023-03-14T06:41:08;98660.75;;;10.66;74.97
74790;BME280;63318;52.406;13.416;2023-03-14T06:43:36;98663.48;;;10.69;74.95
74790;BME280;63318;52.406;13.416;2023-03-14T06:46:05;98665.52;;;10.72;74.51
74790;BME280;63318;52.406;13.416;2023-03-14T06:48:34;98660.23;;;10.76;74.68
74790;BME280;63318;52.406;13.416;2023-03-14T06:51:02;98668.85;;;10.79;74.64
74790;BME280;63318;52.406;13.416;2023-03-14T06:53:30;98675.42;;;10.82;74.40
74790;BME280;63318;52.406;13.416;2023-03-14T06:55:58;98679.05;;;10.86;73.94
74790;BME280;63318;52.406;13.416;2023-03-14T06:58:27;98688.27;;;10.90;74.08
74790;BME280;63318;52.406;13.416;2023-03-14T07:00:55;98690.02;;;10.94;73.75
74790;BME280;63318;52.406;13.416;2023-03-14T07:03:24;98691.73;;;10.98;73.77
74790;BME280;63318;52.406;13.416;2023-03-14T07:05:52;98691.86;;;11.02;73.49
74790;BME280;63318;52.406;13.416;2023-03-14T07:08:21;98693.52;;;11.07;73.47
74790;BME280;63318;52.406;13.416;2023-03-14T07:10:49;98695.63;;;11.11;73.41
74790;BME280;63318;52.406;13.416;2023-03-14T07:13:17;98698.53;;;11.14;73.34
74790;BME280;63318;52.406;13.416;2023-03-14T07:15:46;98698.79;;;11.16;73.45
74790;BME280;63318;52.406;13.416;2023-03-14T07:18:14;98699.54;;;11.17;73.44
74790;BME280;63318;52.406;13.416;2023-03-14T07:20:42;98707.15;;;11.19;73.28
74790;BME280;63318;52.406;13.416;2023-03-14T07:23:12;98705.20;;;11.19;73.30
74790;BME280;63318;52.406;13.416;2023-03-14T07:25:41;98706.89;;;11.20;73.31
74790;BME280;63318;52.406;13.416;2023-03-14T07:28:09;98704.27;;;11.22;73.12
74790;BME280;63318;52.406;13.416;2023-03-14T07:30:37;98707.80;;;11.23;73.20
74790;BME280;63318;52.406;13.416;2023-03-14T07:33:06;98713.33;;;11.26;73.14
74790;BME280;63318;52.406;13.416;2023-03-14T07:35:34;98714.40;;;11.28;73.28
74790;BME280;63318;52.406;13.416;2023-03-14T07:38:03;98717.57;;;11.32;73.26
74790;BME280;63318;52.406;13.416;2023-03-14T07:40:31;98721.86;;;11.33;73.10
74790;BME280;63318;52.406;13.416;2023-03-14T07:42:59;98718.81;;;11.34;73.03
74790;BME280;63318;52.406;13.416;2023-03-14T07:45:28;98718.58;;;11.35;73.05
74790;BME280;63318;52.406;13.416;2023-03-14T07:47:56;98717.97;;;11.35;72.89
74790;BME280;63318;52.406;13.416;2023-03-14T07:50:24;98720.78;;;11.36;72.57
74790;BME280;63318;52.406;13.416;2023-03-14T07:52:53;98719.08;;;11.35;72.70
74790;BME280;63318;52.406;13.416;2023-03-14T07:55:21;98717.05;;;11.36;72.87
74790;BME280;63318;52.406;13.416;2023-03-14T07:57:50;98716.48;;;11.38;72.79
74790;BME280;63318;52.406;13.416;2023-03-14T08:00:19;98719.66;;;11.43;72.63
74790;BME280;63318;52.406;13.416;2023-03-14T08:02:48;98715.61;;;11.50;72.77
74790;BME280;63318;52.406;13.416;2023-03-14T08:05:17;98710.08;;;11.57;72.69
74790;BME280;63318;52.406;13.416;2023-03-14T08:07:45;98707.21;;;11.63;72.54
74790;BME280;63318;52.406;13.416;2023-03-14T08:10:13;98701.64;;;11.66;72.51
74790;BME280;63318;52.406;13.416;2023-03-14T08:12:42;98698.13;;;11.69;72.34
74790;BME280;63318;52.406;13.416;2023-03-14T08:15:11;98702.38;;;11.73;72.23
74790;BME280;63318;52.406;13.416;2023-03-14T08:17:39;98701.84;;;11.77;71.33
74790;BME280;63318;52.406;13.416;2023-03-14T08:20:10;98698.39;;;11.82;71.89
74790;BME280;63318;52.406;13.416;2023-03-14T08:22:40;98694.06;;;11.87;71.85
74790;BME280;63318;52.406;13.416;2023-03-14T08:25:10;98697.84;;;11.92;71.46
74790;BME280;63318;52.406;13.416;2023-03-14T08:27:38;98700.92;;;11.95;71.48
74790;BME280;63318;52.406;13.416;2023-03-14T08:30:09;98696.05;;;11.98;71.40
74790;BME280;63318;52.406;13.416;2023-03-14T08:32:39;98700.06;;;11.99;70.77
74790;BME280;63318;52.406;13.416;2023-03-14T08:35:08;98697.64;;;12.00;70.89
74790;BME280;63318;52.406;13.416;2023-03-14T08:37:37;98705.50;;;12.00;70.17
74790;BME280;63318;52.406;13.416;2023-03-14T08:40:09;98709.14;;;11.99;70.76
74790;BME280;63318;52.406;13.416;2023-03-14T08:42:39;98710.73;;;11.99;70.77
74790;BME280;63318;52.406;13.416;2023-03-14T08:45:10;98714.86;;;11.99;70.77
74790;BME280;63318;52.406;13.416;2023-03-14T08:47:39;98713.67;;;12.01;70.84
74790;BME280;63318;52.406;13.416;2023-03-14T08:50:09;98715.76;;;12.04;70.34
74790;BME280;63318;52.406;13.416;2023-03-14T08:52:38;98720.90;;;12.05;70.66
74790;BME280;63318;52.406;13.416;2023-03-14T08:55:08;98721.61;;;12.06;70.86
74790;BME280;63318;52.406;13.416;2023-03-14T08:57:37;98725.96;;;12.08;70.64
74790;BME280;63318;52.406;13.416;2023-03-14T09:00:07;98726.84;;;12.08;70.81
74790;BME280;63318;52.406;13.416;2023-03-14T09:02:36;98724.89;;;12.07;70.65
74790;BME280;63318;52.406;13.416;2023-03-14T09:05:06;98728.77;;;12.07;70.79
74790;BME280;63318;52.406;13.416;2023-03-14T09:07:34;98722.55;;;12.08;70.48
74790;BME280;63318;52.406;13.416;2023-03-14T09:10:03;98717.22;;;12.09;70.51
74790;BME280;63318;52.406;13.416;2023-03-14T09:12:32;98714.27;;;12.14;70.25
74790;BME280;63318;52.406;13.416;2023-03-14T09:15:00;98705.11;;;12.21;69.46
74790;BME280;63318;52.406;13.416;2023-03-14T09:17:29;98696.23;;;12.34;69.82
74790;BME280;63318;52.406;13.416;2023-03-14T09:19:57;98690.73;;;12.56;69.86
74790;BME280;63318;52.406;13.416;2023-03-14T09:22:25;98689.98;;;12.83;69.44
74790;BME280;63318;52.406;13.416;2023-03-14T09:24:53;98690.44;;;13.09;68.10
74790;BME280;63318;52.406;13.416;2023-03-14T09:27:22;98686.16;;;13.31;68.51
74790;BME280;63318;52.406;13.416;2023-03-14T09:29:50;98684.36;;;13.54;68.32
74790;BME280;63318;52.406;13.416;2023-03-14T09:32:18;98673.56;;;13.77;67.80
74790;BME280;63318;52.406;13.416;2023-03-14T09:34:48;98673.40;;;14.00;67.25
74790;BME280;63318;52.406;13.416;2023-03-14T09:37:16;98676.57;;;14.23;66.81
74790;BME280;63318;52.406;13.416;2023-03-14T09:39:45;98681.05;;;14.44;66.29
74790;BME280;63318;52.406;13.416;2023-03-14T09:42:16;98679.77;;;14.54;64.97
74790;BME280;63318;52.406;13.416;2023-03-14T09:44:45;98683.48;;;14.58;64.89
74790;BME280;63318;52.406;13.416;2023-03-14T09:47:18;98686.91;;;14.55;63.37
74790;BME280;63318;52.406;13.416;2023-03-14T09:49:47;98687.70;;;14.52;63.70
74790;BME280;63318;52.406;13.416;2023-03-14T09:52:17;98682.02;;;14.52;64.37
74790;BME280;63318;52.406;13.416;2023-03-14T09:54:52;98683.41;;;14.50;63.08
74790;BME280;63318;52.406;13.416;2023-03-14T09:57:24;98682.34;;;14.42;62.30
74790;BME280;63318;52.406;13.416;2023-03-14T09:59:56;98684.87;;;14.32;62.78
74790;BME280;63318;52.406;13.416;2023-03-14T10:02:33;98685.45;;;14.26;63.09
74790;BME280;63318;52.406;13.416;2023-03-14T10:05:07;98693.91;;;14.19;62.78
74790;BME280;63318;52.406;13.416;2023-03-14T10:07:36;98693.95;;;14.13;63.56
74790;BME280;63318;52.406;13.416;2023-03-14T10:10:12;98698.58;;;14.09;63.18
74790;BME280;63318;52.406;13.416;2023-03-14T10:12:44;98698.70;;;14.01;61.85
74790;BME280;63318;52.406;13.416;2023-03-14T10:15:15;98696.16;;;13.94;63.00
74790;BME280;63318;52.406;13.416;2023-03-14T10:17:51;98699.29;;;13.87;62.70
74790;BME280;63318;52.406;13.416;2023-03-14T10:20:34;98696.83;;;13.81;63.02
74790;BME280;63318;52.406;13.416;2023-03-14T10:23:04;98696.98;;;13.76;63.01
74790;BME280;63318;52.406;13.416;2023-03-14T10:25:34;98704.59;;;13.73;62.36
74790;BME280;63318;52.406;13.416;2023-03-14T10:28:04;98708.91;;;13.69;62.89
74790;BME280;63318;52.406;13.416;2023-03-14T10:30:38;98707.10;;;13.65;63.33
74790;BME280;63318;52.406;13.416;2023-03-14T10:33:12;98708.79;;;13.61;63.17
74790;BME280;63318;52.406;13.416;2023-03-14T10:35:53;98707.37;;;13.57;61.93
74790;BME280;63318;52.406;13.416;2023-03-14T10:38:25;98709.23;;;13.54;63.05
74790;BME280;63318;52.406;13.416;2023-03-14T10:40:56;98703.88;;;13.51;62.33
74790;BME280;63318;52.406;13.416;2023-03-14T10:43:27;98703.77;;;13.48;62.08
74790;BME280;63318;52.406;13.416;2023-03-14T10:46:01;98706.77;;;13.45;62.80
74790;BME280;63318;52.406;13.416;2023-03-14T10:48:34;98702.95;;;13.43;62.30
74790;BME280;63318;52.406;13.416;2023-03-14T10:51:07;98697.69;;;13.41;62.79
74790;BME280;63318;52.406;13.416;2023-03-14T10:53:41;98701.14;;;13.40;62.56
74790;BME280;63318;52.406;13.416;2023-03-14T10:56:13;98705.07;;;13.38;62.74
74790;BME280;63318;52.406;13.416;2023-03-14T10:58:44;98705.06;;;13.38;63.06
74790;BME280;63318;52.406;13.416;2023-03-14T11:01:23;98703.05;;;13.37;62.86
74790;BME280;63318;52.406;13.416;2023-03-14T11:04:00;98711.38;;;13.36;63.17
74790;BME280;63318;52.406;13.416;2023-03-14T11:06:35;98711.31;;;13.37;63.27
74790;BME280;63318;52.406;13.416;2023-03-14T11:09:12;98713.16;;;13.39;62.79
74790;BME280;63318;52.406;13.416;2023-03-14T11:11:46;98712.49;;;13.40;62.77
74790;BME280;63318;52.406;13.416;2023-03-14T11:14:22;98713.48;;;13.41;62.37
74790;BME280;63318;52.406;13.416;2023-03-14T11:16:57;98713.14;;;13.41;62.38
74790;BME280;63318;52.406;13.416;2023-03-14T11:19:53;98709.77;;;13.40;62.20
74790;BME280;63318;52.406;13.416;2023-03-14T11:22:31;98708.73;;;13.40;62.63
74790;BME280;63318;52.406;13.416;2023-03-14T11:25:09;98709.33;;;13.41;62.97
74790;BME280;63318;52.406;13.416;2023-03-14T11:27:44;98700.60;;;13.42;62.96
74790;BME280;63318;52.406;13.416;2023-03-14T11:30:30;98705.79;;;13.42;63.27
74790;BME280;63318;52.406;13.416;2023-03-14T11:33:07;98702.00;;;13.43;63.34
74790;BME280;63318;52.406;13.416;2023-03-14T11:35:43;98708.84;;;13.43;62.93
74790;BME280;63318;52.406;13.416;2023-03-14T11:38:19;98703.77;;;13.41;63.03
74790;BME280;63318;52.406;13.416;2023-03-14T11:40:54;98708.38;;;13.39;62.90
74790;BME280;63318;52.406;13.416;2023-03-14T11:43:28;98707.76;;;13.37;63.29
74790;BME280;63318;52.406;13.416;2023-03-14T11:46:01;98711.85;;;13.36;63.20
74790;BME280;63318;52.406;13.416;2023-03-14T11:48:37;98711.34;;;13.33;63.32
74790;BME280;63318;52.406;13.416;2023-03-14T11:51:11;98714.52;;;13.31;63.93
74790;BME280;63318;52.406;13.416;2023-03-14T11:54:02;98712.89;;;13.26;64.60
74790;BME280;63318;52.406;13.416;2023-03-14T11:56:37;98710.38;;;13.20;65.35
74790;BME280;63318;52.406;13.416;2023-03-14T11:59:16;98703.90;;;13.17;65.71
74790;BME280;63318;52.406;13.416;2023-03-14T12:01:56;98709.91;;;13.14;65.50
74790;BME280;63318;52.406;13.416;2023-03-14T12:04:39;98712.40;;;13.08;66.18
74790;BME280;63318;52.406;13.416;2023-03-14T12:07:16;98708.86;;;13.02;66.59
74790;BME280;63318;52.406;13.416;2023-03-14T12:09:46;98703.27;;;12.95;67.28
74790;BME280;63318;52.406;13.416;2023-03-14T12:12:18;98699.59;;;12.89;67.63
74790;BME280;63318;52.406;13.416;2023-03-14T12:14:54;98690.20;;;12.85;68.03
74790;BME280;63318;52.406;13.416;2023-03-14T12:17:26;98688.17;;;12.84;68.16
74790;BME280;63318;52.406;13.416;2023-03-14T12:20:12;98689.33;;;12.83;67.84
74790;BME280;63318;52.406;13.416;2023-03-14T12:22:45;98686.34;;;12.84;67.92
74790;BME280;63318;52.406;13.416;2023-03-14T12:25:17;98682.83;;;12.86;68.07
74790;BME280;63318;52.406;13.416;2023-03-14T12:30:32;98676.20;;;12.89;68.06
74790;BME280;63318;52.406;13.416;2023-03-14T12:33:32;98672.73;;;12.92;67.83
74790;BME280;63318;52.406;13.416;2023-03-14T12:36:10;98667.50;;;12.95;67.88
74790;BME280;63318;52.406;13.416;2023-03-14T12:38:58;98664.27;;;12.98;67.88
74790;BME280;63318;52.406;13.416;2023-03-14T12:41:35;98663.17;;;13.03;67.78
74790;BME280;63318;52.406;13.416;2023-03-14T12:50:16;98649.05;;;13.22;67.61
74790;BME280;63318;52.406;13.416;2023-03-14T12:52:57;98654.92;;;13.33;67.52
74790;BME280;63318;52.406;13.416;2023-03-14T12:55:38;98654.37;;;13.42;67.42
74790;BME280;63318;52.406;13.416;2023-03-14T12:58:18;98648.73;;;13.47;66.52
74790;BME280;63318;52.406;13.416;2023-03-14T13:00:58;98649.83;;;13.48;66.70
74790;BME280;63318;52.406;13.416;2023-03-14T13:03:38;98642.66;;;13.51;66.53
74790;BME280;63318;52.406;13.416;2023-03-14T13:06:10;98635.73;;;13.51;66.71
74790;BME280;63318;52.406;13.416;2023-03-14T13:08:41;98630.51;;;13.52;66.95
74790;BME280;63318;52.406;13.416;2023-03-14T13:11:12;98628.02;;;13.54;66.92
74790;BME280;63318;52.406;13.416;2023-03-14T13:13:47;98627.30;;;13.54;66.85
74790;BME280;63318;52.406;13.416;2023-03-14T13:16:19;98625.33;;;13.54;66.43
74790;BME280;63318;52.406;13.416;2023-03-14T13:18:49;98622.23;;;13.55;66.42